createdAt,value
2023-12-30T00:02:59.720Z,2.19
2023-12-30T00:06:03.085Z,2.11
2023-12-30T00:09:06.163Z,2.14
2023-12-30T00:12:10.589Z,2.06
2023-12-30T00:15:13.816Z,2.04
2023-12-30T00:18:17.388Z,2.25
2023-12-30T00:21:21.166Z,2.15
2023-12-30T00:24:24.754Z,2.05
2023-12-30T00:27:27.696Z,2.03
2023-12-30T00:30:31.150Z,2.01
2023-12-30T00:33:34.346Z,2.26
2023-12-30T00:36:45.108Z,2.24
2023-12-30T00:39:49.059Z,2.11
2023-12-30T00:42:52.414Z,2.05
2023-12-30T00:45:55.388Z,2.20
2023-12-30T00:48:58.935Z,2.24
2023-12-30T00:52:02.180Z,2.11
2023-12-30T00:55:06.099Z,2.10
2023-12-30T00:58:09.150Z,2.13
2023-12-30T01:01:12.617Z,2.12
2023-12-30T01:04:15.434Z,2.13
2023-12-30T01:07:18.722Z,2.10
2023-12-30T01:10:21.605Z,2.05
2023-12-30T01:13:25.473Z,2.08
2023-12-30T01:16:28.478Z,2.18
2023-12-30T01:19:31.863Z,2.13
2023-12-30T01:22:35.017Z,2.04
2023-12-30T01:25:40.031Z,1.99
2023-12-30T01:28:42.879Z,1.96
2023-12-30T01:31:46.163Z,1.98
2023-12-30T01:34:49.102Z,1.97
2023-12-30T01:37:52.334Z,2.05
2023-12-30T01:40:56.974Z,2.12
2023-12-30T01:44:00.458Z,2.17
2023-12-30T01:47:03.383Z,2.20
2023-12-30T01:50:08.109Z,1.88
2023-12-30T01:53:12.177Z,1.88
2023-12-30T01:56:16.290Z,1.84
2023-12-30T01:59:20.287Z,1.86
2023-12-30T02:02:24.307Z,1.64
2023-12-30T02:05:27.552Z,1.49
2023-12-30T02:08:30.582Z,1.52
2023-12-30T02:11:34.773Z,1.72
2023-12-30T02:14:37.603Z,1.73
2023-12-30T02:17:41.617Z,1.63
2023-12-30T02:20:44.872Z,1.48
2023-12-30T02:23:54.963Z,1.51
2023-12-30T02:26:58.560Z,1.72
2023-12-30T02:30:01.393Z,1.57
2023-12-30T02:33:05.394Z,1.46
2023-12-30T02:36:08.742Z,1.48
2023-12-30T02:39:12.547Z,1.39
2023-12-30T02:42:15.439Z,1.35
2023-12-30T02:45:18.960Z,1.37
2023-12-30T02:48:21.984Z,1.46
2023-12-30T02:51:25.716Z,1.55
2023-12-30T02:54:29.822Z,1.50
2023-12-30T02:57:33.452Z,1.35
2023-12-30T03:00:50.781Z,1.39
2023-12-30T03:03:55.789Z,1.32
2023-12-30T03:06:58.734Z,1.34
2023-12-30T03:10:02.256Z,1.44
2023-12-30T03:13:05.649Z,1.48
2023-12-30T03:16:09.397Z,1.63
2023-12-30T03:19:12.671Z,1.67
2023-12-30T03:22:16.116Z,1.49
2023-12-30T03:25:19.528Z,1.50
2023-12-30T03:28:22.922Z,1.63
2023-12-30T03:31:30.768Z,1.49
2023-12-30T03:34:34.199Z,1.42
2023-12-30T03:37:37.553Z,1.51
2023-12-30T03:40:40.903Z,1.42
2023-12-30T03:43:44.379Z,1.46
2023-12-30T03:46:48.106Z,1.18
2023-12-30T03:49:50.916Z,1.27
2023-12-30T03:52:54.799Z,1.30
2023-12-30T03:55:58.075Z,1.26
2023-12-30T03:59:01.371Z,1.20
2023-12-30T04:02:04.525Z,1.26
2023-12-30T04:05:08.312Z,1.44
2023-12-30T04:08:11.407Z,1.55
2023-12-30T04:11:15.342Z,1.37
2023-12-30T04:14:19.029Z,1.49
2023-12-30T04:17:22.343Z,1.39
2023-12-30T04:20:25.297Z,1.16
2023-12-30T04:23:29.218Z,1.21
2023-12-30T04:26:32.646Z,1.22
2023-12-30T04:29:35.904Z,1.35
2023-12-30T04:32:38.946Z,1.04
2023-12-30T04:35:43.102Z,1.03
2023-12-30T04:38:47.885Z,1.12
2023-12-30T04:41:51.322Z,1.13
2023-12-30T04:44:55.538Z,1.10
2023-12-30T04:47:58.675Z,1.15
2023-12-30T04:51:01.538Z,1.29
2023-12-30T04:54:05.269Z,1.46
2023-12-30T04:57:08.707Z,1.44
2023-12-30T05:00:12.502Z,1.33
2023-12-30T05:03:16.982Z,1.43
2023-12-30T05:06:24.727Z,1.37
2023-12-30T05:09:27.583Z,1.28
2023-12-30T05:12:30.814Z,1.39
2023-12-30T05:15:33.969Z,1.27
2023-12-30T05:18:37.871Z,1.38
2023-12-30T05:21:42.783Z,1.34
2023-12-30T05:24:46.429Z,1.36
2023-12-30T05:27:49.521Z,1.24
2023-12-30T05:30:52.769Z,1.01
2023-12-30T05:33:56.180Z,0.84
2023-12-30T05:36:59.615Z,0.84
2023-12-30T05:40:03.085Z,0.83
2023-12-30T05:43:07.581Z,0.68
2023-12-30T05:46:17.540Z,0.80
2023-12-30T05:49:20.919Z,0.68
2023-12-30T05:52:24.042Z,0.70
2023-12-30T05:55:27.690Z,0.81
2023-12-30T05:58:30.651Z,0.67
2023-12-30T06:01:34.015Z,0.57
2023-12-30T06:04:41.732Z,0.72
2023-12-30T06:07:44.843Z,0.72
2023-12-30T06:10:53.012Z,0.65
2023-12-30T06:13:56.422Z,0.72
2023-12-30T06:16:59.631Z,0.65
2023-12-30T06:20:02.771Z,0.70
2023-12-30T06:23:06.139Z,0.52
2023-12-30T06:26:09.212Z,0.26
2023-12-30T06:29:12.878Z,0.20
2023-12-30T06:32:15.809Z,0.17
2023-12-30T06:35:19.307Z,0.20
2023-12-30T06:38:22.530Z,0.24
2023-12-30T06:41:25.746Z,0.33
2023-12-30T06:44:28.864Z,0.45
2023-12-30T06:47:32.098Z,0.28
2023-12-30T06:50:35.043Z,0.32
2023-12-30T06:53:39.130Z,0.27
2023-12-30T06:56:42.358Z,0.18
2023-12-30T06:59:45.385Z,0.18
2023-12-30T07:02:49.102Z,0.22
2023-12-30T07:05:52.406Z,0.31
2023-12-30T07:08:55.274Z,0.18
2023-12-30T07:11:58.522Z,0.44
2023-12-30T07:15:01.627Z,0.47
2023-12-30T07:18:05.360Z,0.47
2023-12-30T07:21:08.360Z,0.49
2023-12-30T07:24:11.888Z,0.73
2023-12-30T07:27:16.088Z,0.96
2023-12-30T07:30:19.595Z,1.05
2023-12-30T07:33:23.706Z,1.13
2023-12-30T07:36:28.482Z,1.19
2023-12-30T07:39:34.297Z,1.24
2023-12-30T07:42:37.821Z,1.33
2023-12-30T07:45:41.057Z,1.35
2023-12-30T07:48:45.649Z,1.34
2023-12-30T07:51:48.823Z,1.45
2023-12-30T07:54:51.916Z,1.53
2023-12-30T07:57:54.916Z,1.60
2023-12-30T08:00:58.243Z,1.64
2023-12-30T08:04:02.203Z,1.71
2023-12-30T08:07:05.348Z,1.79
2023-12-30T08:10:08.967Z,1.88
2023-12-30T08:13:30.874Z,2.01
2023-12-30T08:16:38.145Z,2.20
2023-12-30T08:19:41.467Z,2.42
2023-12-30T08:22:45.523Z,2.47
2023-12-30T08:25:48.625Z,2.54
2023-12-30T08:28:53.153Z,2.68
2023-12-30T08:31:56.151Z,2.82
2023-12-30T08:34:59.816Z,2.92
2023-12-30T08:38:02.966Z,2.98
2023-12-30T08:41:11.372Z,3.08
2023-12-30T08:44:14.297Z,3.20
2023-12-30T08:47:18.166Z,3.25
2023-12-30T08:50:21.039Z,3.40
2023-12-30T08:53:26.522Z,3.67
2023-12-30T08:56:35.136Z,4.13
2023-12-30T08:59:39.793Z,4.80
2023-12-30T09:02:48.588Z,5.51
2023-12-30T09:05:51.919Z,6.57
2023-12-30T09:08:54.878Z,6.77
2023-12-30T09:11:58.150Z,7.30
2023-12-30T09:15:00.879Z,7.56
2023-12-30T09:18:04.663Z,8.01
2023-12-30T09:21:07.566Z,8.60
2023-12-30T09:24:11.100Z,9.45
2023-12-30T09:27:13.921Z,10.49
2023-12-30T09:30:17.308Z,11.50
2023-12-30T09:33:20.717Z,12.26
2023-12-30T09:36:24.329Z,12.77
2023-12-30T09:39:28.180Z,13.20
2023-12-30T09:42:31.379Z,13.36
2023-12-30T09:45:35.944Z,13.52
2023-12-30T09:48:41.119Z,13.65
2023-12-30T09:51:44.300Z,13.23
2023-12-30T09:54:49.514Z,12.52
2023-12-30T09:57:52.759Z,12.45
2023-12-30T10:00:56.004Z,12.40
2023-12-30T10:03:59.667Z,11.59
2023-12-30T10:07:04.429Z,11.30
2023-12-30T10:10:09.515Z,12.64
2023-12-30T10:13:14.237Z,12.77
2023-12-30T10:16:18.593Z,12.53
2023-12-30T10:19:21.616Z,12.18
2023-12-30T10:22:25.141Z,12.22
2023-12-30T10:25:28.003Z,12.10
2023-12-30T10:28:31.909Z,12.00
2023-12-30T10:31:35.143Z,12.07
2023-12-30T10:34:42.485Z,11.94
2023-12-30T10:37:48.774Z,11.87
2023-12-30T10:40:55.209Z,12.10
2023-12-30T10:43:58.664Z,12.11
2023-12-30T10:47:04.271Z,11.78
2023-12-30T10:50:11.262Z,12.15
2023-12-30T10:53:24.664Z,11.49
2023-12-30T10:56:31.558Z,12.36
2023-12-30T10:59:38.746Z,12.33
2023-12-30T11:02:42.593Z,12.24
2023-12-30T11:05:58.342Z,12.66
2023-12-30T11:09:08.298Z,12.67
2023-12-30T11:12:11.727Z,13.75
2023-12-30T11:15:31.977Z,14.45
2023-12-30T11:18:51.216Z,15.13
2023-12-30T11:22:02.830Z,15.24
2023-12-30T11:25:06.528Z,15.01
2023-12-30T11:28:19.610Z,14.43
2023-12-30T11:31:35.308Z,13.84
2023-12-30T11:34:38.273Z,14.18
2023-12-30T11:37:45.600Z,13.79
2023-12-30T11:40:55.886Z,13.98
2023-12-30T11:44:01.623Z,13.39
2023-12-30T11:47:04.939Z,14.68
2023-12-30T11:50:11.400Z,15.39
2023-12-30T11:53:17.128Z,16.51
2023-12-30T11:56:22.959Z,17.09
2023-12-30T11:59:26.501Z,17.65
2023-12-30T12:02:29.862Z,18.28
2023-12-30T12:05:34.985Z,18.42
2023-12-30T12:08:39.648Z,18.16
2023-12-30T12:11:44.096Z,18.35
2023-12-30T12:14:54.213Z,18.69
2023-12-30T12:17:58.074Z,19.17
2023-12-30T12:21:04.658Z,19.31
2023-12-30T12:24:07.881Z,19.01
2023-12-30T12:27:11.360Z,18.89
2023-12-30T12:30:14.719Z,19.29
2023-12-30T12:33:22.504Z,19.09
2023-12-30T12:36:27.019Z,19.42
2023-12-30T12:39:31.631Z,19.19
2023-12-30T12:42:35.191Z,19.88
2023-12-30T12:45:38.239Z,19.59
2023-12-30T12:48:41.590Z,19.68
2023-12-30T12:51:45.694Z,18.36
2023-12-30T12:54:49.113Z,16.93
2023-12-30T12:57:52.261Z,15.78
2023-12-30T13:00:55.596Z,15.09
2023-12-30T13:03:59.885Z,14.20
2023-12-30T13:07:03.472Z,13.59
2023-12-30T13:10:34.087Z,13.37
2023-12-30T13:13:37.799Z,13.19
2023-12-30T13:16:43.153Z,12.86
2023-12-30T13:19:47.521Z,12.70
2023-12-30T13:22:56.841Z,12.81
2023-12-30T13:26:03.290Z,13.31
2023-12-30T13:29:07.775Z,13.22
2023-12-30T13:32:12.498Z,13.05
2023-12-30T13:35:15.394Z,12.76
2023-12-30T13:38:24.634Z,13.27
2023-12-30T13:41:27.513Z,13.26
2023-12-30T13:44:36.910Z,12.88
2023-12-30T13:47:45.671Z,12.35
2023-12-30T13:50:56.081Z,12.13
2023-12-30T13:54:01.060Z,11.84
2023-12-30T13:57:14.296Z,11.58
2023-12-30T14:00:19.551Z,11.47
2023-12-30T14:03:24.566Z,11.37
2023-12-30T14:06:36.327Z,11.25
2023-12-30T14:09:51.560Z,11.00
2023-12-30T14:13:02.043Z,10.93
2023-12-30T14:16:07.351Z,10.71
2023-12-30T14:19:10.763Z,10.50
2023-12-30T14:22:17.593Z,10.21
2023-12-30T14:25:20.430Z,10.09
2023-12-30T14:28:23.932Z,9.92
2023-12-30T14:31:26.961Z,9.83
2023-12-30T14:34:30.808Z,9.73
2023-12-30T14:37:33.983Z,9.55
2023-12-30T14:40:37.593Z,9.50
2023-12-30T14:43:40.529Z,9.38
2023-12-30T14:46:44.065Z,9.27
2023-12-30T14:49:47.034Z,9.16
2023-12-30T14:52:50.284Z,9.05
2023-12-30T14:55:53.139Z,9.04
2023-12-30T14:58:56.569Z,8.94
2023-12-30T15:01:59.675Z,8.84
2023-12-30T15:05:03.193Z,8.75
2023-12-30T15:08:06.462Z,8.65
2023-12-30T15:11:10.432Z,8.54
2023-12-30T15:14:13.396Z,8.36
2023-12-30T15:17:16.751Z,8.23
2023-12-30T15:20:20.738Z,7.96
2023-12-30T15:23:24.337Z,7.79
2023-12-30T15:26:27.378Z,7.61
2023-12-30T15:29:30.457Z,7.40
2023-12-30T15:32:33.795Z,7.24
2023-12-30T15:35:37.452Z,7.13
2023-12-30T15:38:40.587Z,7.04
2023-12-30T15:41:45.900Z,6.77
2023-12-30T15:44:49.566Z,6.61
2023-12-30T15:47:53.021Z,6.46
2023-12-30T15:50:56.111Z,6.50
2023-12-30T15:53:59.957Z,6.43
2023-12-30T15:57:03.201Z,6.30
2023-12-30T16:00:09.915Z,6.33
2023-12-30T16:03:15.272Z,6.25
2023-12-30T16:06:19.293Z,6.18
2023-12-30T16:09:22.930Z,6.11
2023-12-30T16:12:26.235Z,6.10
2023-12-30T16:15:31.126Z,5.76
2023-12-30T16:18:34.207Z,5.74
2023-12-30T16:21:38.329Z,5.43
2023-12-30T16:24:43.120Z,5.37
2023-12-30T16:27:49.141Z,5.37
2023-12-30T16:30:56.423Z,5.25
2023-12-30T16:34:01.387Z,5.22
2023-12-30T16:37:06.749Z,5.28
2023-12-30T16:40:12.407Z,5.15
2023-12-30T16:43:16.294Z,5.07
2023-12-30T16:46:20.393Z,4.93
2023-12-30T16:49:23.366Z,4.92
2023-12-30T16:52:27.125Z,4.93
2023-12-30T16:55:30.376Z,4.85
2023-12-30T16:58:34.575Z,4.88
2023-12-30T17:01:37.982Z,4.80
2023-12-30T17:04:41.879Z,4.71
2023-12-30T17:07:45.484Z,4.66
2023-12-30T17:10:49.635Z,4.54
2023-12-30T17:13:54.246Z,4.48
2023-12-30T17:16:57.926Z,4.47
2023-12-30T17:20:00.769Z,4.56
2023-12-30T17:23:06.989Z,4.71
2023-12-30T17:26:10.318Z,4.59
2023-12-30T17:29:13.936Z,4.68
2023-12-30T17:32:18.751Z,4.73
2023-12-30T17:35:26.331Z,4.59
2023-12-30T17:38:29.070Z,4.33
2023-12-30T17:41:32.630Z,4.20
2023-12-30T17:44:36.456Z,4.20
2023-12-30T17:47:40.595Z,4.18
2023-12-30T17:50:46.714Z,4.39
2023-12-30T17:53:51.669Z,4.49
2023-12-30T17:56:55.177Z,4.45
2023-12-30T17:59:58.981Z,4.15
2023-12-30T18:03:02.718Z,4.38
2023-12-30T18:06:07.941Z,4.24
2023-12-30T18:09:12.778Z,4.16
2023-12-30T18:12:16.644Z,4.12
2023-12-30T18:15:20.343Z,3.96
2023-12-30T18:18:24.326Z,3.71
2023-12-30T18:21:29.056Z,3.71
2023-12-30T18:24:33.341Z,3.76
2023-12-30T18:27:36.760Z,3.74
2023-12-30T18:30:43.062Z,3.54
2023-12-30T18:33:47.363Z,3.51
2023-12-30T18:36:53.636Z,3.52
2023-12-30T18:39:57.092Z,3.70
2023-12-30T18:43:00.968Z,3.51
2023-12-30T18:46:04.429Z,3.17
2023-12-30T18:49:08.951Z,3.17
2023-12-30T18:52:16.317Z,3.20
2023-12-30T18:55:20.684Z,3.29
2023-12-30T18:58:25.096Z,3.26
2023-12-30T19:01:29.179Z,3.16
2023-12-30T19:04:36.020Z,3.18
2023-12-30T19:07:41.998Z,3.22
2023-12-30T19:10:45.953Z,3.14
2023-12-30T19:13:50.106Z,3.06
2023-12-30T19:16:53.432Z,3.11
2023-12-30T19:20:01.275Z,3.05
2023-12-30T19:23:05.233Z,3.03
2023-12-30T19:26:09.981Z,2.89
2023-12-30T19:29:13.513Z,2.72
2023-12-30T19:32:17.418Z,2.86
2023-12-30T19:35:20.664Z,2.74
2023-12-30T19:38:24.676Z,2.68
2023-12-30T19:41:27.517Z,2.80
2023-12-30T19:44:32.349Z,2.77
2023-12-30T19:47:35.811Z,2.59
2023-12-30T19:50:39.752Z,2.43
2023-12-30T19:53:43.788Z,2.40
2023-12-30T19:56:47.743Z,2.42
2023-12-30T19:59:50.915Z,2.47
2023-12-30T20:02:54.798Z,2.52
2023-12-30T20:05:58.957Z,2.35
2023-12-30T20:09:03.046Z,2.29
2023-12-30T20:12:07.298Z,2.34
2023-12-30T20:15:10.614Z,2.48
2023-12-30T20:18:15.460Z,2.42
2023-12-30T20:21:19.235Z,2.30
2023-12-30T20:24:23.986Z,2.21
2023-12-30T20:27:30.143Z,2.16
2023-12-30T20:30:35.409Z,2.22
2023-12-30T20:33:39.366Z,2.19
2023-12-30T20:36:45.299Z,2.14
2023-12-30T20:39:50.213Z,2.24
2023-12-30T20:42:55.744Z,2.34
2023-12-30T20:46:01.400Z,2.38
2023-12-30T20:49:07.862Z,2.44
2023-12-30T20:52:12.716Z,2.23
2023-12-30T20:55:18.425Z,2.31
2023-12-30T20:58:22.448Z,2.32
2023-12-30T21:01:28.990Z,2.17
2023-12-30T21:04:38.792Z,2.09
2023-12-30T21:07:41.783Z,2.14
2023-12-30T21:10:44.695Z,2.03
2023-12-30T21:13:48.064Z,1.97
2023-12-30T21:16:51.668Z,2.02
2023-12-30T21:19:55.361Z,2.02
2023-12-30T21:22:58.328Z,1.89
2023-12-30T21:26:02.292Z,1.88
2023-12-30T21:29:07.298Z,2.00
2023-12-30T21:32:11.083Z,1.83
2023-12-30T21:35:14.359Z,1.87
2023-12-30T21:38:17.750Z,2.00
2023-12-30T21:41:24.641Z,1.94
2023-12-30T21:44:27.951Z,1.95
2023-12-30T21:47:32.167Z,1.90
2023-12-30T21:50:35.546Z,2.02
2023-12-30T21:53:38.478Z,1.96
2023-12-30T21:56:42.991Z,2.08
2023-12-30T21:59:46.060Z,2.11
2023-12-30T22:02:49.333Z,2.18
2023-12-30T22:05:52.632Z,2.24
2023-12-30T22:08:55.552Z,2.26
2023-12-30T22:11:58.729Z,2.15
2023-12-30T22:15:01.407Z,2.26
2023-12-30T22:18:08.187Z,2.17
2023-12-30T22:21:11.191Z,2.11
2023-12-30T22:24:14.490Z,2.06
2023-12-30T22:27:17.438Z,2.23
2023-12-30T22:30:21.161Z,2.19
2023-12-30T22:33:24.229Z,2.26
2023-12-30T22:36:29.434Z,2.30
2023-12-30T22:39:32.611Z,2.32
2023-12-30T22:42:36.614Z,2.25
2023-12-30T22:45:42.220Z,2.15
2023-12-30T22:48:45.558Z,2.17
2023-12-30T22:51:50.018Z,2.10
2023-12-30T22:54:53.390Z,2.17
2023-12-30T22:57:56.173Z,2.12
2023-12-30T23:00:59.612Z,2.11
2023-12-30T23:04:03.166Z,2.10
2023-12-30T23:07:06.421Z,2.13
2023-12-30T23:10:12.787Z,1.94
2023-12-30T23:13:20.297Z,1.96
2023-12-30T23:16:23.405Z,1.95
2023-12-30T23:19:26.752Z,1.68
2023-12-30T23:22:29.648Z,1.68
2023-12-30T23:25:33.917Z,1.58
2023-12-30T23:28:36.889Z,1.61
2023-12-30T23:31:42.721Z,1.52
2023-12-30T23:34:49.663Z,1.34
2023-12-30T23:37:54.176Z,1.25
2023-12-30T23:40:56.957Z,1.36
2023-12-30T23:44:00.575Z,1.14
2023-12-30T23:47:03.250Z,1.24
2023-12-30T23:50:07.011Z,1.25
2023-12-30T23:53:09.889Z,1.33
2023-12-30T23:56:13.167Z,1.20
2023-12-30T23:59:18.440Z,1.19
